sensor_id;sensor_type;location;lat;lon;timestamp;temperature;humidity
28552;DHT22;15752;49.560;8.708;2023-04-09T00:00:03;12.60;94.70
28552;DHT22;15752;49.560;8.708;2023-04-09T00:02:39;12.60;94.80
28552;DHT22;15752;49.560;8.708;2023-04-09T00:05:08;12.60;94.90
28552;DHT22;15752;49.560;8.708;2023-04-09T00:07:36;12.50;94.90
28552;DHT22;15752;49.560;8.708;2023-04-09T00:10:05;12.60;94.90
28552;DHT22;15752;49.560;8.708;2023-04-09T00:12:34;12.50;94.90
28552;DHT22;15752;49.560;8.708;2023-04-09T00:15:04;12.70;95.00
28552;DHT22;15752;49.560;8.708;2023-04-09T00:17:37;12.50;95.00
28552;DHT22;15752;49.560;8.708;2023-04-09T00:20:08;12.50;94.90
28552;DHT22;15752;49.560;8.708;2023-04-09T00:22:36;12.50;94.90
28552;DHT22;15752;49.560;8.708;2023-04-09T00:25:06;12.60;94.90
28552;DHT22;15752;49.560;8.708;2023-04-09T00:27:34;12.50;94.90
28552;DHT22;15752;49.560;8.708;2023-04-09T00:30:04;12.50;94.90
28552;DHT22;15752;49.560;8.708;2023-04-09T00:32:33;12.40;94.90
28552;DHT22;15752;49.560;8.708;2023-04-09T00:35:03;12.50;94.90
28552;DHT22;15752;49.560;8.708;2023-04-09T00:37:32;12.40;94.90
28552;DHT22;15752;49.560;8.708;2023-04-09T00:40:00;12.50;94.80
28552;DHT22;15752;49.560;8.708;2023-04-09T00:42:31;12.60;94.90
28552;DHT22;15752;49.560;8.708;2023-04-09T00:45:00;12.40;95.00
28552;DHT22;15752;49.560;8.708;2023-04-09T00:47:29;12.50;95.00
28552;DHT22;15752;49.560;8.708;2023-04-09T00:49:57;12.40;95.00
28552;DHT22;15752;49.560;8.708;2023-04-09T00:52:29;12.30;95.00
28552;DHT22;15752;49.560;8.708;2023-04-09T00:54:58;12.40;95.10
28552;DHT22;15752;49.560;8.708;2023-04-09T00:57:27;12.30;95.10
28552;DHT22;15752;49.560;8.708;2023-04-09T00:59:56;12.30;95.00
28552;DHT22;15752;49.560;8.708;2023-04-09T01:02:25;12.30;95.10
28552;DHT22;15752;49.560;8.708;2023-04-09T01:04:54;12.30;95.00
28552;DHT22;15752;49.560;8.708;2023-04-09T01:07:34;12.40;95.20
28552;DHT22;15752;49.560;8.708;2023-04-09T01:10:17;12.30;95.20
28552;DHT22;15752;49.560;8.708;2023-04-09T01:12:57;12.30;95.20
28552;DHT22;15752;49.560;8.708;2023-04-09T01:15:33;12.40;95.30
28552;DHT22;15752;49.560;8.708;2023-04-09T01:18:11;12.40;95.20
28552;DHT22;15752;49.560;8.708;2023-04-09T01:20:48;12.20;95.20
28552;DHT22;15752;49.560;8.708;2023-04-09T01:23:31;12.30;95.30
28552;DHT22;15752;49.560;8.708;2023-04-09T01:26:16;12.20;95.30
28552;DHT22;15752;49.560;8.708;2023-04-09T01:28:55;12.30;95.30
28552;DHT22;15752;49.560;8.708;2023-04-09T01:31:28;12.20;95.20
28552;DHT22;15752;49.560;8.708;2023-04-09T01:33:59;12.20;95.20
28552;DHT22;15752;49.560;8.708;2023-04-09T01:36:30;12.20;95.20
28552;DHT22;15752;49.560;8.708;2023-04-09T01:39:00;12.20;95.30
28552;DHT22;15752;49.560;8.708;2023-04-09T01:41:31;12.10;95.30
28552;DHT22;15752;49.560;8.708;2023-04-09T01:44:03;12.10;95.30
28552;DHT22;15752;49.560;8.708;2023-04-09T01:46:34;12.10;95.30
28552;DHT22;15752;49.560;8.708;2023-04-09T01:49:04;12.10;95.30
28552;DHT22;15752;49.560;8.708;2023-04-09T01:51:33;12.10;95.30
28552;DHT22;15752;49.560;8.708;2023-04-09T01:54:02;12.00;95.20
28552;DHT22;15752;49.560;8.708;2023-04-09T01:56:39;12.00;95.20
28552;DHT22;15752;49.560;8.708;2023-04-09T01:59:10;12.00;95.40
28552;DHT22;15752;49.560;8.708;2023-04-09T02:01:44;11.90;95.60
28552;DHT22;15752;49.560;8.708;2023-04-09T02:04:19;12.00;95.70
28552;DHT22;15752;49.560;8.708;2023-04-09T02:06:56;11.90;95.30
28552;DHT22;15752;49.560;8.708;2023-04-09T02:09:29;11.90;95.40
28552;DHT22;15752;49.560;8.708;2023-04-09T02:12:01;11.90;95.30
28552;DHT22;15752;49.560;8.708;2023-04-09T02:14:33;11.80;95.30
28552;DHT22;15752;49.560;8.708;2023-04-09T02:17:03;11.80;95.40
28552;DHT22;15752;49.560;8.708;2023-04-09T02:19:39;11.80;95.60
28552;DHT22;15752;49.560;8.708;2023-04-09T02:22:09;11.80;95.40
28552;DHT22;15752;49.560;8.708;2023-04-09T02:24:38;11.70;95.30
28552;DHT22;15752;49.560;8.708;2023-04-09T02:27:07;11.70;95.30
28552;DHT22;15752;49.560;8.708;2023-04-09T02:29:39;11.70;95.40
28552;DHT22;15752;49.560;8.708;2023-04-09T02:32:08;11.60;95.30
28552;DHT22;15752;49.560;8.708;2023-04-09T02:34:36;11.70;95.30
28552;DHT22;15752;49.560;8.708;2023-04-09T02:37:04;11.60;95.30
28552;DHT22;15752;49.560;8.708;2023-04-09T02:39:33;11.60;95.30
28552;DHT22;15752;49.560;8.708;2023-04-09T02:42:01;11.50;95.30
28552;DHT22;15752;49.560;8.708;2023-04-09T02:44:30;11.50;95.20
28552;DHT22;15752;49.560;8.708;2023-04-09T02:47:00;11.40;95.20
28552;DHT22;15752;49.560;8.708;2023-04-09T02:49:29;11.40;95.20
28552;DHT22;15752;49.560;8.708;2023-04-09T02:51:57;11.40;95.20
28552;DHT22;15752;49.560;8.708;2023-04-09T02:54:26;11.40;95.40
28552;DHT22;15752;49.560;8.708;2023-04-09T02:56:54;11.30;95.30
28552;DHT22;15752;49.560;8.708;2023-04-09T02:59:23;11.30;95.70
28552;DHT22;15752;49.560;8.708;2023-04-09T03:01:52;11.30;95.40
28552;DHT22;15752;49.560;8.708;2023-04-09T03:04:21;11.30;95.30
28552;DHT22;15752;49.560;8.708;2023-04-09T03:06:50;11.20;95.30
28552;DHT22;15752;49.560;8.708;2023-04-09T03:09:18;11.20;95.30
28552;DHT22;15752;49.560;8.708;2023-04-09T03:11:47;11.20;95.40
28552;DHT22;15752;49.560;8.708;2023-04-09T03:14:15;11.10;95.40
28552;DHT22;15752;49.560;8.708;2023-04-09T03:16:44;11.10;95.40
28552;DHT22;15752;49.560;8.708;2023-04-09T03:19:12;11.10;95.30
28552;DHT22;15752;49.560;8.708;2023-04-09T03:21:42;11.10;95.40
28552;DHT22;15752;49.560;8.708;2023-04-09T03:24:12;11.00;95.30
28552;DHT22;15752;49.560;8.708;2023-04-09T03:26:41;11.00;95.30
28552;DHT22;15752;49.560;8.708;2023-04-09T03:29:12;11.00;95.40
28552;DHT22;15752;49.560;8.708;2023-04-09T03:31:41;10.90;95.40
28552;DHT22;15752;49.560;8.708;2023-04-09T03:34:10;11.10;95.50
28552;DHT22;15752;49.560;8.708;2023-04-09T03:36:39;10.90;95.30
28552;DHT22;15752;49.560;8.708;2023-04-09T03:39:23;10.90;95.40
28552;DHT22;15752;49.560;8.708;2023-04-09T03:41:56;10.80;95.50
28552;DHT22;15752;49.560;8.708;2023-04-09T03:44:29;10.80;95.40
28552;DHT22;15752;49.560;8.708;2023-04-09T03:47:03;10.80;95.50
28552;DHT22;15752;49.560;8.708;2023-04-09T03:49:34;10.80;95.50
28552;DHT22;15752;49.560;8.708;2023-04-09T03:52:14;10.70;95.60
28552;DHT22;15752;49.560;8.708;2023-04-09T03:54:46;10.70;95.60
28552;DHT22;15752;49.560;8.708;2023-04-09T03:57:19;10.70;95.60
28552;DHT22;15752;49.560;8.708;2023-04-09T03:59:50;10.70;95.60
28552;DHT22;15752;49.560;8.708;2023-04-09T04:02:21;10.70;95.60
28552;DHT22;15752;49.560;8.708;2023-04-09T04:04:58;10.70;95.60
28552;DHT22;15752;49.560;8.708;2023-04-09T04:07:33;10.60;95.60
28552;DHT22;15752;49.560;8.708;2023-04-09T04:10:10;10.60;95.70
28552;DHT22;15752;49.560;8.708;2023-04-09T04:12:43;10.70;95.70
28552;DHT22;15752;49.560;8.708;2023-04-09T04:15:25;10.60;96.00
28552;DHT22;15752;49.560;8.708;2023-04-09T04:17:55;10.60;95.70
28552;DHT22;15752;49.560;8.708;2023-04-09T04:20:35;10.60;95.70
28552;DHT22;15752;49.560;8.708;2023-04-09T04:23:12;10.60;95.80
28552;DHT22;15752;49.560;8.708;2023-04-09T04:25:56;10.60;95.80
28552;DHT22;15752;49.560;8.708;2023-04-09T04:28:30;10.60;95.80
28552;DHT22;15752;49.560;8.708;2023-04-09T04:30:59;10.50;95.80
28552;DHT22;15752;49.560;8.708;2023-04-09T04:33:29;10.50;95.70
28552;DHT22;15752;49.560;8.708;2023-04-09T04:36:06;10.50;95.80
28552;DHT22;15752;49.560;8.708;2023-04-09T04:38:41;10.50;95.80
28552;DHT22;15752;49.560;8.708;2023-04-09T04:41:16;10.50;95.80
28552;DHT22;15752;49.560;8.708;2023-04-09T04:43:52;10.40;95.80
28552;DHT22;15752;49.560;8.708;2023-04-09T04:46:23;10.40;95.80
28552;DHT22;15752;49.560;8.708;2023-04-09T04:48:51;10.60;95.80
28552;DHT22;15752;49.560;8.708;2023-04-09T04:51:21;10.40;95.80
28552;DHT22;15752;49.560;8.708;2023-04-09T04:54:02;10.40;95.80
28552;DHT22;15752;49.560;8.708;2023-04-09T04:56:31;10.40;95.80
28552;DHT22;15752;49.560;8.708;2023-04-09T04:59:15;10.40;95.80
28552;DHT22;15752;49.560;8.708;2023-04-09T05:02:03;10.30;95.80
28552;DHT22;15752;49.560;8.708;2023-04-09T05:04:39;10.30;95.80
28552;DHT22;15752;49.560;8.708;2023-04-09T05:07:11;10.40;95.80
28552;DHT22;15752;49.560;8.708;2023-04-09T05:09:48;10.30;95.80
28552;DHT22;15752;49.560;8.708;2023-04-09T05:12:17;10.40;95.90
28552;DHT22;15752;49.560;8.708;2023-04-09T05:14:49;10.20;95.80
28552;DHT22;15752;49.560;8.708;2023-04-09T05:17:18;10.20;95.90
28552;DHT22;15752;49.560;8.708;2023-04-09T05:19:50;10.20;95.90
28552;DHT22;15752;49.560;8.708;2023-04-09T05:22:24;10.20;96.00
28552;DHT22;15752;49.560;8.708;2023-04-09T05:24:54;10.20;95.90
28552;DHT22;15752;49.560;8.708;2023-04-09T05:27:23;10.10;95.90
28552;DHT22;15752;49.560;8.708;2023-04-09T05:29:59;10.10;96.00
28552;DHT22;15752;49.560;8.708;2023-04-09T05:32:27;10.10;96.00
28552;DHT22;15752;49.560;8.708;2023-04-09T05:34:56;10.20;96.40
28552;DHT22;15752;49.560;8.708;2023-04-09T05:37:26;10.10;96.00
28552;DHT22;15752;49.560;8.708;2023-04-09T05:39:56;10.10;96.00
28552;DHT22;15752;49.560;8.708;2023-04-09T05:42:25;10.10;96.10
28552;DHT22;15752;49.560;8.708;2023-04-09T05:45:03;10.10;96.00
28552;DHT22;15752;49.560;8.708;2023-04-09T05:47:32;10.00;96.10
28552;DHT22;15752;49.560;8.708;2023-04-09T05:50:10;10.00;96.10
28552;DHT22;15752;49.560;8.708;2023-04-09T05:52:40;10.10;96.10
28552;DHT22;15752;49.560;8.708;2023-04-09T05:55:12;10.00;96.10
28552;DHT22;15752;49.560;8.708;2023-04-09T05:57:52;10.00;96.20
28552;DHT22;15752;49.560;8.708;2023-04-09T06:00:20;10.20;96.20
28552;DHT22;15752;49.560;8.708;2023-04-09T06:02:49;10.10;96.20
28552;DHT22;15752;49.560;8.708;2023-04-09T06:05:18;10.00;96.20
28552;DHT22;15752;49.560;8.708;2023-04-09T06:07:47;10.10;96.20
28552;DHT22;15752;49.560;8.708;2023-04-09T06:10:17;10.00;96.20
28552;DHT22;15752;49.560;8.708;2023-04-09T06:12:47;10.10;96.30
28552;DHT22;15752;49.560;8.708;2023-04-09T06:15:15;10.00;96.30
28552;DHT22;15752;49.560;8.708;2023-04-09T06:17:44;10.00;96.30
28552;DHT22;15752;49.560;8.708;2023-04-09T06:20:13;10.00;96.30
28552;DHT22;15752;49.560;8.708;2023-04-09T06:22:41;10.10;96.40
28552;DHT22;15752;49.560;8.708;2023-04-09T06:25:10;10.00;96.70
28552;DHT22;15752;49.560;8.708;2023-04-09T06:27:39;10.00;96.40
28552;DHT22;15752;49.560;8.708;2023-04-09T06:30:09;10.10;96.50
28552;DHT22;15752;49.560;8.708;2023-04-09T06:32:39;10.00;96.60
28552;DHT22;15752;49.560;8.708;2023-04-09T06:35:20;10.00;96.60
28552;DHT22;15752;49.560;8.708;2023-04-09T06:37:48;10.00;96.60
28552;DHT22;15752;49.560;8.708;2023-04-09T06:40:17;10.00;96.60
28552;DHT22;15752;49.560;8.708;2023-04-09T06:42:50;10.00;96.60
28552;DHT22;15752;49.560;8.708;2023-04-09T06:45:27;10.00;96.60
28552;DHT22;15752;49.560;8.708;2023-04-09T06:47:57;10.00;96.60
28552;DHT22;15752;49.560;8.708;2023-04-09T06:50:25;10.10;96.60
28552;DHT22;15752;49.560;8.708;2023-04-09T06:52:54;10.10;96.70
28552;DHT22;15752;49.560;8.708;2023-04-09T06:55:24;10.30;96.90
28552;DHT22;15752;49.560;8.708;2023-04-09T06:57:54;10.20;97.00
28552;DHT22;15752;49.560;8.708;2023-04-09T07:00:22;10.30;96.90
28552;DHT22;15752;49.560;8.708;2023-04-09T07:02:50;10.20;96.90
28552;DHT22;15752;49.560;8.708;2023-04-09T07:05:20;10.20;96.90
28552;DHT22;15752;49.560;8.708;2023-04-09T07:07:49;10.20;96.90
28552;DHT22;15752;49.560;8.708;2023-04-09T07:10:18;10.30;97.00
28552;DHT22;15752;49.560;8.708;2023-04-09T07:12:46;10.40;97.00
28552;DHT22;15752;49.560;8.708;2023-04-09T07:15:16;10.40;97.00
28552;DHT22;15752;49.560;8.708;2023-04-09T07:17:44;10.50;97.20
28552;DHT22;15752;49.560;8.708;2023-04-09T07:20:13;10.30;97.00
28552;DHT22;15752;49.560;8.708;2023-04-09T07:22:41;10.50;97.10
28552;DHT22;15752;49.560;8.708;2023-04-09T07:25:09;10.40;97.10
28552;DHT22;15752;49.560;8.708;2023-04-09T07:27:38;10.40;97.20
28552;DHT22;15752;49.560;8.708;2023-04-09T07:30:07;10.50;97.30
28552;DHT22;15752;49.560;8.708;2023-04-09T07:32:38;10.50;97.40
28552;DHT22;15752;49.560;8.708;2023-04-09T07:35:07;10.70;97.60
28552;DHT22;15752;49.560;8.708;2023-04-09T07:37:37;10.60;97.50
28552;DHT22;15752;49.560;8.708;2023-04-09T07:40:06;10.70;97.50
28552;DHT22;15752;49.560;8.708;2023-04-09T07:42:36;10.70;97.70
28552;DHT22;15752;49.560;8.708;2023-04-09T07:45:06;10.80;97.80
28552;DHT22;15752;49.560;8.708;2023-04-09T07:47:35;10.90;97.80
28552;DHT22;15752;49.560;8.708;2023-04-09T07:50:06;10.90;97.70
28552;DHT22;15752;49.560;8.708;2023-04-09T07:52:35;11.00;97.90
28552;DHT22;15752;49.560;8.708;2023-04-09T07:55:04;11.00;97.80
28552;DHT22;15752;49.560;8.708;2023-04-09T07:57:33;11.10;98.00
28552;DHT22;15752;49.560;8.708;2023-04-09T08:00:03;11.10;97.90
28552;DHT22;15752;49.560;8.708;2023-04-09T08:02:39;11.20;97.90
28552;DHT22;15752;49.560;8.708;2023-04-09T08:05:10;11.30;97.80
28552;DHT22;15752;49.560;8.708;2023-04-09T08:07:38;11.40;97.80
28552;DHT22;15752;49.560;8.708;2023-04-09T08:10:07;11.50;97.70
28552;DHT22;15752;49.560;8.708;2023-04-09T08:12:41;11.50;97.80
28552;DHT22;15752;49.560;8.708;2023-04-09T08:15:09;11.70;97.80
28552;DHT22;15752;49.560;8.708;2023-04-09T08:17:38;11.70;97.70
28552;DHT22;15752;49.560;8.708;2023-04-09T08:20:07;11.90;97.70
28552;DHT22;15752;49.560;8.708;2023-04-09T08:22:38;11.80;97.70
28552;DHT22;15752;49.560;8.708;2023-04-09T08:25:08;11.90;97.50
28552;DHT22;15752;49.560;8.708;2023-04-09T08:27:37;12.00;97.50
28552;DHT22;15752;49.560;8.708;2023-04-09T08:30:06;12.10;97.30
28552;DHT22;15752;49.560;8.708;2023-04-09T08:32:35;12.10;97.20
28552;DHT22;15752;49.560;8.708;2023-04-09T08:35:05;12.20;97.00
28552;DHT22;15752;49.560;8.708;2023-04-09T08:37:36;12.20;97.00
28552;DHT22;15752;49.560;8.708;2023-04-09T08:40:06;12.30;96.70
28552;DHT22;15752;49.560;8.708;2023-04-09T08:42:42;12.40;96.70
28552;DHT22;15752;49.560;8.708;2023-04-09T08:45:11;12.40;96.70
28552;DHT22;15752;49.560;8.708;2023-04-09T08:47:41;12.60;96.80
28552;DHT22;15752;49.560;8.708;2023-04-09T08:50:10;12.60;96.50
28552;DHT22;15752;49.560;8.708;2023-04-09T08:52:40;12.70;96.40
28552;DHT22;15752;49.560;8.708;2023-04-09T08:55:10;12.70;96.40
28552;DHT22;15752;49.560;8.708;2023-04-09T08:57:39;12.80;96.30
28552;DHT22;15752;49.560;8.708;2023-04-09T09:00:09;12.80;96.10
28552;DHT22;15752;49.560;8.708;2023-04-09T09:02:38;12.90;96.10
28552;DHT22;15752;49.560;8.708;2023-04-09T09:05:35;13.00;96.20
28552;DHT22;15752;49.560;8.708;2023-04-09T09:08:06;13.10;95.80
28552;DHT22;15752;49.560;8.708;2023-04-09T09:10:39;13.20;95.70
28552;DHT22;15752;49.560;8.708;2023-04-09T09:13:16;13.30;95.70
28552;DHT22;15752;49.560;8.708;2023-04-09T09:15:46;13.30;95.60
28552;DHT22;15752;49.560;8.708;2023-04-09T09:18:16;13.40;95.50
28552;DHT22;15752;49.560;8.708;2023-04-09T09:20:45;13.50;95.50
28552;DHT22;15752;49.560;8.708;2023-04-09T09:23:16;13.60;95.50
28552;DHT22;15752;49.560;8.708;2023-04-09T09:26:10;13.70;95.30
28552;DHT22;15752;49.560;8.708;2023-04-09T09:28:40;13.70;94.80
28552;DHT22;15752;49.560;8.708;2023-04-09T09:31:10;13.80;94.90
28552;DHT22;15752;49.560;8.708;2023-04-09T09:33:39;13.90;94.90
28552;DHT22;15752;49.560;8.708;2023-04-09T09:36:08;13.90;94.80
28552;DHT22;15752;49.560;8.708;2023-04-09T09:38:55;13.90;94.80
28552;DHT22;15752;49.560;8.708;2023-04-09T09:41:24;14.00;94.80
28552;DHT22;15752;49.560;8.708;2023-04-09T09:43:53;14.10;94.70
28552;DHT22;15752;49.560;8.708;2023-04-09T09:46:22;14.10;94.60
28552;DHT22;15752;49.560;8.708;2023-04-09T09:48:52;14.10;94.40
28552;DHT22;15752;49.560;8.708;2023-04-09T09:51:24;14.10;94.50
28552;DHT22;15752;49.560;8.708;2023-04-09T09:53:56;14.20;94.30
28552;DHT22;15752;49.560;8.708;2023-04-09T09:56:29;14.20;94.10
28552;DHT22;15752;49.560;8.708;2023-04-09T09:59:06;14.20;94.10
28552;DHT22;15752;49.560;8.708;2023-04-09T10:01:40;14.20;93.90
28552;DHT22;15752;49.560;8.708;2023-04-09T10:04:13;14.30;94.10
28552;DHT22;15752;49.560;8.708;2023-04-09T10:06:43;14.30;93.70
28552;DHT22;15752;49.560;8.708;2023-04-09T10:09:13;14.30;93.70
28552;DHT22;15752;49.560;8.708;2023-04-09T10:11:43;14.30;93.90
28552;DHT22;15752;49.560;8.708;2023-04-09T10:14:15;14.30;93.70
28552;DHT22;15752;49.560;8.708;2023-04-09T10:16:45;14.30;93.70
28552;DHT22;15752;49.560;8.708;2023-04-09T10:19:14;14.40;93.60
28552;DHT22;15752;49.560;8.708;2023-04-09T10:21:48;14.40;93.40
28552;DHT22;15752;49.560;8.708;2023-04-09T10:24:22;14.40;93.40
28552;DHT22;15752;49.560;8.708;2023-04-09T10:26:53;14.40;93.30
28552;DHT22;15752;49.560;8.708;2023-04-09T10:29:27;14.40;93.10
28552;DHT22;15752;49.560;8.708;2023-04-09T10:32:03;14.50;92.90
28552;DHT22;15752;49.560;8.708;2023-04-09T10:34:35;14.50;92.90
28552;DHT22;15752;49.560;8.708;2023-04-09T10:37:07;14.50;93.20
28552;DHT22;15752;49.560;8.708;2023-04-09T10:39:42;14.50;92.60
28552;DHT22;15752;49.560;8.708;2023-04-09T10:42:14;14.60;92.50
28552;DHT22;15752;49.560;8.708;2023-04-09T10:45:03;14.60;92.80
28552;DHT22;15752;49.560;8.708;2023-04-09T10:47:34;14.60;92.50
28552;DHT22;15752;49.560;8.708;2023-04-09T10:50:17;14.70;92.70
28552;DHT22;15752;49.560;8.708;2023-04-09T10:52:51;14.70;92.70
28552;DHT22;15752;49.560;8.708;2023-04-09T10:55:33;14.70;92.40
28552;DHT22;15752;49.560;8.708;2023-04-09T10:58:13;14.80;92.10
28552;DHT22;15752;49.560;8.708;2023-04-09T11:00:47;14.80;92.00
28552;DHT22;15752;49.560;8.708;2023-04-09T11:03:28;14.80;92.10
28552;DHT22;15752;49.560;8.708;2023-04-09T11:06:00;14.80;91.80
28552;DHT22;15752;49.560;8.708;2023-04-09T11:08:32;14.90;91.90
28552;DHT22;15752;49.560;8.708;2023-04-09T11:11:05;14.90;92.10
28552;DHT22;15752;49.560;8.708;2023-04-09T11:13:44;14.90;91.60
28552;DHT22;15752;49.560;8.708;2023-04-09T11:16:15;14.90;91.80
28552;DHT22;15752;49.560;8.708;2023-04-09T11:18:50;15.00;91.70
28552;DHT22;15752;49.560;8.708;2023-04-09T11:21:26;15.00;91.80
28552;DHT22;15752;49.560;8.708;2023-04-09T11:23:55;15.10;91.80
28552;DHT22;15752;49.560;8.708;2023-04-09T11:26:35;15.20;91.70
28552;DHT22;15752;49.560;8.708;2023-04-09T11:29:04;15.20;91.40
28552;DHT22;15752;49.560;8.708;2023-04-09T11:31:36;15.20;91.50
28552;DHT22;15752;49.560;8.708;2023-04-09T11:34:10;15.30;91.00
28552;DHT22;15752;49.560;8.708;2023-04-09T11:36:39;15.30;91.20
28552;DHT22;15752;49.560;8.708;2023-04-09T11:39:08;15.40;91.20
28552;DHT22;15752;49.560;8.708;2023-04-09T11:41:38;15.40;90.90
28552;DHT22;15752;49.560;8.708;2023-04-09T11:44:08;15.40;90.50
28552;DHT22;15752;49.560;8.708;2023-04-09T11:46:37;15.50;91.20
28552;DHT22;15752;49.560;8.708;2023-04-09T11:49:09;15.50;90.70
28552;DHT22;15752;49.560;8.708;2023-04-09T11:51:55;15.50;90.90
28552;DHT22;15752;49.560;8.708;2023-04-09T11:54:32;15.50;90.70
28552;DHT22;15752;49.560;8.708;2023-04-09T11:57:07;15.50;90.20
28552;DHT22;15752;49.560;8.708;2023-04-09T11:59:37;15.50;90.10
28552;DHT22;15752;49.560;8.708;2023-04-09T12:02:09;15.60;89.90
28552;DHT22;15752;49.560;8.708;2023-04-09T12:04:48;15.60;90.10
28552;DHT22;15752;49.560;8.708;2023-04-09T12:07:31;15.70;90.00
28552;DHT22;15752;49.560;8.708;2023-04-09T12:10:03;15.60;89.50
28552;DHT22;15752;49.560;8.708;2023-04-09T12:12:41;15.70;89.10
28552;DHT22;15752;49.560;8.708;2023-04-09T12:15:17;15.80;90.20
28552;DHT22;15752;49.560;8.708;2023-04-09T12:17:48;15.80;89.20
28552;DHT22;15752;49.560;8.708;2023-04-09T12:20:32;15.80;88.60
28552;DHT22;15752;49.560;8.708;2023-04-09T12:23:03;15.80;87.10
28552;DHT22;15752;49.560;8.708;2023-04-09T12:25:35;15.90;87.90
28552;DHT22;15752;49.560;8.708;2023-04-09T12:28:06;15.90;88.20
28552;DHT22;15752;49.560;8.708;2023-04-09T12:30:35;15.90;88.10
28552;DHT22;15752;49.560;8.708;2023-04-09T12:33:04;16.00;88.70
28552;DHT22;15752;49.560;8.708;2023-04-09T12:35:36;16.00;89.20
28552;DHT22;15752;49.560;8.708;2023-04-09T12:38:05;16.10;88.20
28552;DHT22;15752;49.560;8.708;2023-04-09T12:40:34;16.20;87.30
28552;DHT22;15752;49.560;8.708;2023-04-09T12:43:04;16.20;87.30
28552;DHT22;15752;49.560;8.708;2023-04-09T12:45:33;16.30;86.80
28552;DHT22;15752;49.560;8.708;2023-04-09T12:48:02;16.30;87.00
28552;DHT22;15752;49.560;8.708;2023-04-09T12:50:31;16.40;87.10
28552;DHT22;15752;49.560;8.708;2023-04-09T12:52:59;16.40;86.00
28552;DHT22;15752;49.560;8.708;2023-04-09T12:55:28;16.50;86.10
28552;DHT22;15752;49.560;8.708;2023-04-09T12:57:59;16.50;86.00
28552;DHT22;15752;49.560;8.708;2023-04-09T13:00:30;16.60;85.50
28552;DHT22;15752;49.560;8.708;2023-04-09T13:02:59;16.60;85.20
28552;DHT22;15752;49.560;8.708;2023-04-09T13:05:27;16.60;85.80
28552;DHT22;15752;49.560;8.708;2023-04-09T13:07:57;16.70;84.70
28552;DHT22;15752;49.560;8.708;2023-04-09T13:10:26;16.70;84.60
28552;DHT22;15752;49.560;8.708;2023-04-09T13:12:54;16.80;84.00
28552;DHT22;15752;49.560;8.708;2023-04-09T13:15:22;16.90;84.30
28552;DHT22;15752;49.560;8.708;2023-04-09T13:17:52;16.90;83.90
28552;DHT22;15752;49.560;8.708;2023-04-09T13:20:21;17.00;83.40
28552;DHT22;15752;49.560;8.708;2023-04-09T13:22:49;17.00;83.90
28552;DHT22;15752;49.560;8.708;2023-04-09T13:25:18;17.10;84.20
28552;DHT22;15752;49.560;8.708;2023-04-09T13:27:46;17.10;83.70
28552;DHT22;15752;49.560;8.708;2023-04-09T13:30:15;17.10;83.40
28552;DHT22;15752;49.560;8.708;2023-04-09T13:32:43;17.20;83.70
28552;DHT22;15752;49.560;8.708;2023-04-09T13:35:13;17.20;83.50
28552;DHT22;15752;49.560;8.708;2023-04-09T13:37:41;17.10;81.90
28552;DHT22;15752;49.560;8.708;2023-04-09T13:40:10;17.10;81.70
28552;DHT22;15752;49.560;8.708;2023-04-09T13:42:39;17.10;80.90
28552;DHT22;15752;49.560;8.708;2023-04-09T13:45:08;17.10;81.10
28552;DHT22;15752;49.560;8.708;2023-04-09T13:47:36;17.10;80.30
28552;DHT22;15752;49.560;8.708;2023-04-09T13:50:06;17.10;80.60
28552;DHT22;15752;49.560;8.708;2023-04-09T13:52:38;17.00;80.40
28552;DHT22;15752;49.560;8.708;2023-04-09T13:55:07;17.00;79.50
28552;DHT22;15752;49.560;8.708;2023-04-09T13:57:37;17.00;79.70
28552;DHT22;15752;49.560;8.708;2023-04-09T14:00:06;17.00;80.40
28552;DHT22;15752;49.560;8.708;2023-04-09T14:02:36;17.00;79.50
28552;DHT22;15752;49.560;8.708;2023-04-09T14:05:05;17.00;80.40
28552;DHT22;15752;49.560;8.708;2023-04-09T14:07:33;17.00;79.90
28552;DHT22;15752;49.560;8.708;2023-04-09T14:10:07;17.00;80.60
28552;DHT22;15752;49.560;8.708;2023-04-09T14:12:36;17.00;78.60
28552;DHT22;15752;49.560;8.708;2023-04-09T14:15:06;17.10;79.30
28552;DHT22;15752;49.560;8.708;2023-04-09T14:17:36;17.10;78.50
28552;DHT22;15752;49.560;8.708;2023-04-09T14:20:05;17.10;78.50
28552;DHT22;15752;49.560;8.708;2023-04-09T14:22:34;17.10;78.50
28552;DHT22;15752;49.560;8.708;2023-04-09T14:25:03;17.10;78.80
28552;DHT22;15752;49.560;8.708;2023-04-09T14:27:33;17.10;78.50
28552;DHT22;15752;49.560;8.708;2023-04-09T14:30:02;17.10;79.50
28552;DHT22;15752;49.560;8.708;2023-04-09T14:32:33;17.10;78.50
28552;DHT22;15752;49.560;8.708;2023-04-09T14:35:02;17.10;77.70
28552;DHT22;15752;49.560;8.708;2023-04-09T14:37:30;17.20;77.90
28552;DHT22;15752;49.560;8.708;2023-04-09T14:39:59;17.20;77.50
28552;DHT22;15752;49.560;8.708;2023-04-09T14:42:27;17.10;77.90
28552;DHT22;15752;49.560;8.708;2023-04-09T14:44:57;17.20;77.90
28552;DHT22;15752;49.560;8.708;2023-04-09T14:47:26;17.20;76.70
28552;DHT22;15752;49.560;8.708;2023-04-09T14:49:54;17.10;78.30
28552;DHT22;15752;49.560;8.708;2023-04-09T14:52:22;17.10;77.30
28552;DHT22;15752;49.560;8.708;2023-04-09T14:54:51;17.10;76.50
28552;DHT22;15752;49.560;8.708;2023-04-09T14:57:20;17.10;76.00
28552;DHT22;15752;49.560;8.708;2023-04-09T14:59:48;17.10;76.10
28552;DHT22;15752;49.560;8.708;2023-04-09T15:02:18;17.10;76.30
28552;DHT22;15752;49.560;8.708;2023-04-09T15:04:47;17.00;75.50
28552;DHT22;15752;49.560;8.708;2023-04-09T15:07:18;17.00;75.90
28552;DHT22;15752;49.560;8.708;2023-04-09T15:09:51;17.00;76.50
28552;DHT22;15752;49.560;8.708;2023-04-09T15:12:19;17.00;75.50
28552;DHT22;15752;49.560;8.708;2023-04-09T15:14:48;17.00;76.30
28552;DHT22;15752;49.560;8.708;2023-04-09T15:17:18;17.00;76.50
28552;DHT22;15752;49.560;8.708;2023-04-09T15:19:46;16.90;76.20
28552;DHT22;15752;49.560;8.708;2023-04-09T15:22:15;16.90;75.60
28552;DHT22;15752;49.560;8.708;2023-04-09T15:24:43;16.90;75.60
28552;DHT22;15752;49.560;8.708;2023-04-09T15:27:12;16.90;76.20
28552;DHT22;15752;49.560;8.708;2023-04-09T15:29:40;16.80;76.30
28552;DHT22;15752;49.560;8.708;2023-04-09T15:32:09;16.80;76.30
28552;DHT22;15752;49.560;8.708;2023-04-09T15:34:39;16.80;75.20
28552;DHT22;15752;49.560;8.708;2023-04-09T15:37:08;16.80;76.00
28552;DHT22;15752;49.560;8.708;2023-04-09T15:39:36;16.70;75.70
28552;DHT22;15752;49.560;8.708;2023-04-09T15:42:05;16.70;75.50
28552;DHT22;15752;49.560;8.708;2023-04-09T15:44:37;16.70;75.00
28552;DHT22;15752;49.560;8.708;2023-04-09T15:47:05;16.60;75.00
28552;DHT22;15752;49.560;8.708;2023-04-09T15:49:35;16.70;74.20
28552;DHT22;15752;49.560;8.708;2023-04-09T15:52:05;16.60;73.60
28552;DHT22;15752;49.560;8.708;2023-04-09T15:54:33;16.70;73.70